createdAt,value
2023-04-17T00:02:21.916Z,52.03
2023-04-17T00:04:52.054Z,45.40
2023-04-17T00:07:22.715Z,48.33
2023-04-17T00:09:52.016Z,52.38
2023-04-17T00:12:18.978Z,51.60
2023-04-17T00:14:46.349Z,49.70
2023-04-17T00:17:13.243Z,49.45
2023-04-17T00:19:40.652Z,50.53
2023-04-17T00:22:07.658Z,55.63
2023-04-17T00:24:35.712Z,59.15
2023-04-17T00:27:03.286Z,52.22
2023-04-17T00:29:34.167Z,59.28
2023-04-17T00:32:02.343Z,60.55
2023-04-17T00:34:29.508Z,60.60
2023-04-17T00:36:56.706Z,60.88
2023-04-17T00:39:23.713Z,54.75
2023-04-17T00:41:50.831Z,65.32
2023-04-17T00:44:17.856Z,58.45
2023-04-17T00:46:45.229Z,58.17
2023-04-17T00:49:15.389Z,59.28
2023-04-17T00:51:42.330Z,62.22
2023-04-17T00:54:10.305Z,56.15
2023-04-17T00:56:37.487Z,55.67
2023-04-17T00:59:06.701Z,59.28
2023-04-17T01:01:33.843Z,54.97
2023-04-17T01:04:02.111Z,56.72
2023-04-17T01:06:29.487Z,57.72
2023-04-17T01:08:57.352Z,62.90
2023-04-17T01:11:24.369Z,56.20
2023-04-17T01:13:51.706Z,64.32
2023-04-17T01:16:19.751Z,59.25
2023-04-17T01:18:51.356Z,65.75
2023-04-17T01:21:21.969Z,68.43
2023-04-17T01:23:53.627Z,62.47
2023-04-17T01:26:26.297Z,62.10
2023-04-17T01:28:55.224Z,60.45
2023-04-17T01:31:23.477Z,63.78
2023-04-17T01:33:52.259Z,59.08
2023-04-17T01:36:19.762Z,53.75
2023-04-17T01:38:46.678Z,55.53
2023-04-17T01:41:13.782Z,62.25
2023-04-17T01:43:46.487Z,58.10
2023-04-17T01:46:17.987Z,59.47
2023-04-17T01:48:45.583Z,64.95
2023-04-17T01:51:12.702Z,65.63
2023-04-17T01:53:40.142Z,63.42
2023-04-17T01:56:07.768Z,64.10
2023-04-17T01:58:35.154Z,57.58
2023-04-17T02:01:02.273Z,65.30
2023-04-17T02:03:29.368Z,66.15
2023-04-17T02:05:56.560Z,63.70
2023-04-17T02:08:23.829Z,63.08
2023-04-17T02:10:51.237Z,57.97
2023-04-17T02:13:18.486Z,60.15
2023-04-17T02:15:45.883Z,62.88
2023-04-17T02:18:13.535Z,61.70
2023-04-17T02:20:40.658Z,65.32
2023-04-17T02:23:07.946Z,60.15
2023-04-17T02:25:36.476Z,61.63
2023-04-17T02:28:04.374Z,62.20
2023-04-17T02:30:31.349Z,56.47
2023-04-17T02:32:59.128Z,48.33
2023-04-17T02:35:28.528Z,50.47
2023-04-17T02:37:57.715Z,49.90
2023-04-17T02:40:26.407Z,51.78
2023-04-17T02:43:00.308Z,43.08
2023-04-17T02:45:27.629Z,44.63
2023-04-17T02:47:55.200Z,39.17
2023-04-17T02:50:23.184Z,44.17
2023-04-17T02:53:01.220Z,45.10
2023-04-17T02:55:28.130Z,42.55
2023-04-17T02:57:55.382Z,40.90
2023-04-17T03:00:23.148Z,42.17
2023-04-17T03:02:53.696Z,45.55
2023-04-17T03:05:23.275Z,44.53
2023-04-17T03:07:55.070Z,52.03
2023-04-17T03:10:25.062Z,50.75
2023-04-17T03:12:54.657Z,49.40
2023-04-17T03:15:21.715Z,47.25
2023-04-17T03:17:48.741Z,48.53
2023-04-17T03:20:16.226Z,54.30
2023-04-17T03:22:43.375Z,53.42
2023-04-17T03:25:11.043Z,48.25
2023-04-17T03:27:45.098Z,47.53
2023-04-17T03:30:13.866Z,52.97
2023-04-17T03:32:44.922Z,50.05
2023-04-17T03:35:12.065Z,48.72
2023-04-17T03:37:39.294Z,47.17
2023-04-17T03:40:07.452Z,55.90
2023-04-17T03:42:34.635Z,55.03
2023-04-17T03:45:03.398Z,44.15
2023-04-17T03:47:33.303Z,49.47
2023-04-17T03:50:00.714Z,49.35
2023-04-17T03:52:33.657Z,53.35
2023-04-17T03:55:01.232Z,52.60
2023-04-17T03:57:28.248Z,48.67
2023-04-17T03:59:55.325Z,47.40
2023-04-17T04:02:24.961Z,53.53
2023-04-17T04:04:54.539Z,46.67
2023-04-17T04:07:22.629Z,43.60
2023-04-17T04:09:50.642Z,50.47
2023-04-17T04:12:19.020Z,45.95
2023-04-17T04:14:46.486Z,41.83
2023-04-17T04:17:15.599Z,40.13
2023-04-17T04:19:43.658Z,37.35
2023-04-17T04:22:13.710Z,35.72
2023-04-17T04:24:53.683Z,37.65
2023-04-17T04:27:33.038Z,36.00
2023-04-17T04:32:34.040Z,36.28
2023-04-17T04:35:02.581Z,32.88
2023-04-17T04:37:30.612Z,40.63
2023-04-17T04:40:11.854Z,39.22
2023-04-17T04:42:42.400Z,41.80
2023-04-17T04:45:22.952Z,46.42
2023-04-17T04:47:50.448Z,39.35
2023-04-17T04:50:17.720Z,41.70
2023-04-17T04:52:44.799Z,45.13
2023-04-17T04:55:24.644Z,37.38
2023-04-17T04:57:54.620Z,41.60
2023-04-17T05:00:25.125Z,45.67
2023-04-17T05:02:55.121Z,41.25
2023-04-17T05:05:25.980Z,41.13
2023-04-17T05:07:55.096Z,43.92
2023-04-17T05:10:26.572Z,38.80
2023-04-17T05:12:58.931Z,37.75
2023-04-17T05:15:27.118Z,45.10
2023-04-17T05:17:54.490Z,47.40
2023-04-17T05:20:23.380Z,45.03
2023-04-17T05:22:54.836Z,40.40
2023-04-17T05:25:23.035Z,40.47
2023-04-17T05:27:50.652Z,45.22
2023-04-17T05:30:18.538Z,48.90
2023-04-17T05:32:52.222Z,42.28
2023-04-17T05:35:28.425Z,45.25
2023-04-17T05:37:56.240Z,46.00
2023-04-17T05:40:24.502Z,47.17
2023-04-17T05:42:51.525Z,46.90
2023-04-17T05:45:19.337Z,48.83
2023-04-17T05:47:46.439Z,43.97
2023-04-17T05:50:14.972Z,45.65
2023-04-17T05:52:42.518Z,41.75
2023-04-17T05:55:15.544Z,43.83
2023-04-17T05:57:44.463Z,44.80
2023-04-17T06:00:13.242Z,41.80
2023-04-17T06:02:50.008Z,48.72
2023-04-17T06:05:26.401Z,46.35
2023-04-17T06:07:53.654Z,42.88
2023-04-17T06:10:22.593Z,49.55
2023-04-17T06:12:50.290Z,49.97
2023-04-17T06:15:18.855Z,48.53
2023-04-17T06:17:46.020Z,47.17
2023-04-17T06:20:13.757Z,47.88
2023-04-17T06:22:44.601Z,50.05
2023-04-17T06:25:11.683Z,44.90
2023-04-17T06:27:39.793Z,45.47
2023-04-17T06:30:08.009Z,46.45
2023-04-17T06:32:47.381Z,48.85
2023-04-17T06:35:14.687Z,42.25
2023-04-17T06:37:48.888Z,45.70
2023-04-17T06:40:16.166Z,44.00
2023-04-17T06:42:43.238Z,43.72
2023-04-17T06:45:18.736Z,47.28
2023-04-17T06:47:49.137Z,52.75
2023-04-17T06:50:18.316Z,45.83
2023-04-17T06:52:47.173Z,47.28
2023-04-17T06:55:14.093Z,49.13
2023-04-17T06:57:41.170Z,58.53
2023-04-17T07:00:08.767Z,55.97
2023-04-17T07:02:35.918Z,55.33
2023-04-17T07:05:07.186Z,50.45
2023-04-17T07:07:35.788Z,49.23
2023-04-17T07:10:03.974Z,54.25
2023-04-17T07:12:31.284Z,50.03
2023-04-17T07:14:59.088Z,50.45
2023-04-17T07:17:27.582Z,52.67
2023-04-17T07:19:54.564Z,57.50
2023-04-17T07:22:21.700Z,49.55
2023-04-17T07:24:48.693Z,55.22
2023-04-17T07:27:16.299Z,56.47
2023-04-17T07:29:46.872Z,56.10
2023-04-17T07:32:14.778Z,55.63
2023-04-17T07:34:42.132Z,58.00
2023-04-17T07:37:09.842Z,58.17
2023-04-17T07:39:37.907Z,57.17
2023-04-17T07:42:08.871Z,54.47
2023-04-17T07:44:40.385Z,54.70
2023-04-17T07:47:08.972Z,57.42
2023-04-17T07:49:36.120Z,55.92
2023-04-17T07:52:03.402Z,60.42
2023-04-17T07:54:32.081Z,55.75
2023-04-17T07:57:03.120Z,50.95
2023-04-17T07:59:30.865Z,54.78
2023-04-17T08:01:57.972Z,56.72
2023-04-17T08:04:26.339Z,54.50
2023-04-17T08:06:53.539Z,52.08
2023-04-17T08:09:21.586Z,50.42
2023-04-17T08:11:57.106Z,55.03
2023-04-17T08:14:25.703Z,57.05
2023-04-17T08:16:54.660Z,49.78
2023-04-17T08:19:23.094Z,47.97
2023-04-17T08:21:50.801Z,54.65
2023-04-17T08:24:19.685Z,48.83
2023-04-17T08:26:47.897Z,55.25
2023-04-17T08:29:15.274Z,53.08
2023-04-17T08:31:43.022Z,48.33
2023-04-17T08:34:15.003Z,49.50
2023-04-17T08:36:43.263Z,50.70
2023-04-17T08:39:12.582Z,48.25
2023-04-17T08:42:04.132Z,50.38
2023-04-17T08:44:31.208Z,47.50
2023-04-17T08:46:58.685Z,47.53
2023-04-17T08:49:29.298Z,51.90
2023-04-17T08:51:57.678Z,52.30
2023-04-17T08:54:24.876Z,49.58
2023-04-17T08:56:51.752Z,49.33
2023-04-17T08:59:18.745Z,51.35
2023-04-17T09:02:06.384Z,48.88
2023-04-17T09:04:42.053Z,49.78
2023-04-17T09:07:11.402Z,48.42
2023-04-17T09:09:58.289Z,53.10
2023-04-17T09:12:26.532Z,51.08
2023-04-17T09:14:55.040Z,49.10
2023-04-17T09:17:22.556Z,47.78
2023-04-17T09:20:12.384Z,49.28
2023-04-17T09:22:42.389Z,52.15
2023-04-17T09:25:17.756Z,51.67
2023-04-17T09:27:46.781Z,51.58
2023-04-17T09:30:16.600Z,49.00
2023-04-17T09:32:43.997Z,45.55
2023-04-17T09:35:11.093Z,43.15
2023-04-17T09:37:49.916Z,39.13
2023-04-17T09:40:21.525Z,40.22
2023-04-17T09:43:03.900Z,46.65
2023-04-17T09:45:36.183Z,43.22
2023-04-17T09:48:06.944Z,44.33
2023-04-17T09:50:36.592Z,42.08
2023-04-17T09:53:06.396Z,40.90
2023-04-17T09:55:37.121Z,40.20
2023-04-17T09:58:07.692Z,44.80
2023-04-17T10:00:37.887Z,46.20
2023-04-17T10:03:09.326Z,40.63
2023-04-17T10:05:40.262Z,40.87
2023-04-17T10:08:07.771Z,40.25
2023-04-17T10:10:36.924Z,40.97
2023-04-17T10:13:07.165Z,39.85
2023-04-17T10:15:37.896Z,38.92
2023-04-17T10:18:28.525Z,33.47
2023-04-17T10:20:55.847Z,35.30
2023-04-17T10:23:28.079Z,34.83
2023-04-17T10:26:26.603Z,34.22
2023-04-17T10:28:55.705Z,37.33
2023-04-17T10:32:02.885Z,29.08
2023-04-17T10:34:43.818Z,30.15
2023-04-17T10:37:15.582Z,31.23
2023-04-17T10:40:00.964Z,28.13
2023-04-17T10:42:30.313Z,33.78
2023-04-17T10:44:59.905Z,30.10
2023-04-17T10:47:36.494Z,28.15
2023-04-17T10:50:10.230Z,30.48
2023-04-17T10:52:40.283Z,28.98
2023-04-17T10:55:11.729Z,33.95
2023-04-17T10:58:14.350Z,31.67
2023-04-17T11:00:52.893Z,30.33
2023-04-17T11:03:24.093Z,34.13
2023-04-17T11:05:52.264Z,30.85
2023-04-17T11:08:19.365Z,32.53
2023-04-17T11:10:46.445Z,28.27
2023-04-17T11:13:14.912Z,33.10
2023-04-17T11:15:42.299Z,31.67
2023-04-17T11:18:09.714Z,29.23
2023-04-17T11:20:38.055Z,32.90
2023-04-17T11:23:06.540Z,28.05
2023-04-17T11:25:35.066Z,27.30
2023-04-17T11:28:05.127Z,29.88
2023-04-17T11:30:32.448Z,29.83
2023-04-17T11:33:02.923Z,27.50
2023-04-17T11:35:34.983Z,28.65
2023-04-17T11:38:20.755Z,26.38
2023-04-17T11:40:58.582Z,28.35
2023-04-17T11:43:29.076Z,32.60
2023-04-17T11:45:58.411Z,33.33
2023-04-17T11:48:29.026Z,31.25
2023-04-17T11:50:58.953Z,32.33
2023-04-17T11:53:26.868Z,33.28
2023-04-17T11:56:20.268Z,30.85
2023-04-17T11:58:53.717Z,30.77
2023-04-17T12:01:25.555Z,33.22
2023-04-17T12:03:57.201Z,36.65
2023-04-17T12:06:25.092Z,34.10
2023-04-17T12:08:55.801Z,29.15
2023-04-17T12:11:33.825Z,33.53
2023-04-17T12:14:02.311Z,35.10
2023-04-17T12:16:31.666Z,32.88
2023-04-17T12:18:58.825Z,35.25
2023-04-17T12:21:26.847Z,35.35
2023-04-17T12:23:54.960Z,34.33
2023-04-17T12:26:26.085Z,34.05
2023-04-17T12:28:56.595Z,31.50
2023-04-17T12:31:23.614Z,29.45
2023-04-17T12:33:52.692Z,39.38
2023-04-17T12:36:20.535Z,35.28
2023-04-17T12:38:48.313Z,37.10
2023-04-17T12:41:15.402Z,33.45
2023-04-17T12:43:42.809Z,33.35
2023-04-17T12:46:09.924Z,30.98
2023-04-17T12:48:37.186Z,30.92
2023-04-17T12:51:06.315Z,31.13
2023-04-17T12:53:33.901Z,32.78
2023-04-17T12:56:03.201Z,31.80
2023-04-17T12:58:31.141Z,30.80
2023-04-17T13:00:58.225Z,29.98
2023-04-17T13:03:25.631Z,33.13
2023-04-17T13:05:53.522Z,30.80
2023-04-17T13:08:22.539Z,30.20
2023-04-17T13:10:49.562Z,27.23
2023-04-17T13:13:17.702Z,24.23
2023-04-17T13:15:47.959Z,27.80
2023-04-17T13:18:17.329Z,29.83
2023-04-17T13:20:44.291Z,22.55
2023-04-17T13:23:12.097Z,26.70
2023-04-17T13:25:39.533Z,25.83
2023-04-17T13:28:06.849Z,25.52
2023-04-17T13:30:37.534Z,23.95
2023-04-17T13:33:04.902Z,24.02
2023-04-17T13:35:33.907Z,25.25
2023-04-17T13:38:03.309Z,23.35
2023-04-17T13:40:32.720Z,27.02
2023-04-17T13:43:01.842Z,25.92
2023-04-17T13:45:29.172Z,25.40
2023-04-17T13:47:56.655Z,25.70
2023-04-17T13:50:24.923Z,24.98
2023-04-17T13:52:51.997Z,30.85
2023-04-17T13:55:19.367Z,26.73
2023-04-17T13:57:47.991Z,24.88
2023-04-17T14:00:18.983Z,23.63
2023-04-17T14:02:46.137Z,21.35
2023-04-17T14:05:13.539Z,20.38
2023-04-17T14:07:42.050Z,25.23
2023-04-17T14:10:10.093Z,23.05
2023-04-17T14:12:37.384Z,25.85
2023-04-17T14:15:05.293Z,24.77
2023-04-17T14:17:33.026Z,24.15
2023-04-17T14:20:02.447Z,30.17
2023-04-17T14:22:29.815Z,30.08
2023-04-17T14:24:56.814Z,20.42
2023-04-17T14:27:23.823Z,22.85
2023-04-17T14:29:50.974Z,21.98
2023-04-17T14:32:18.023Z,20.25
2023-04-17T14:34:45.264Z,19.73
2023-04-17T14:37:12.201Z,21.88
2023-04-17T14:39:39.203Z,18.30
2023-04-17T14:42:08.476Z,18.88
2023-04-17T14:44:35.425Z,23.98
2023-04-17T14:47:04.705Z,19.20
2023-04-17T14:49:31.750Z,17.77
2023-04-17T14:51:58.634Z,19.00
2023-04-17T14:54:25.648Z,18.08
2023-04-17T14:56:53.173Z,15.15
2023-04-17T14:59:20.685Z,16.88
2023-04-17T15:01:48.892Z,18.90
2023-04-17T15:04:16.883Z,17.92
2023-04-17T15:06:45.202Z,17.17
2023-04-17T15:09:12.737Z,18.17
2023-04-17T15:11:40.955Z,20.20
2023-04-17T15:14:07.968Z,18.70
2023-04-17T15:16:36.056Z,17.05
2023-04-17T15:19:02.973Z,18.33
2023-04-17T15:21:30.509Z,15.65
2023-04-17T15:23:57.658Z,15.85
2023-04-17T15:26:24.796Z,13.95
2023-04-17T15:28:51.986Z,17.73
2023-04-17T15:31:19.224Z,17.35
2023-04-17T15:33:47.921Z,19.52
2023-04-17T15:36:15.206Z,17.73
2023-04-17T15:38:44.337Z,22.38
2023-04-17T15:41:11.402Z,20.13
2023-04-17T15:43:38.919Z,18.33
2023-04-17T15:46:06.092Z,15.55
2023-04-17T15:48:33.101Z,13.77
2023-04-17T15:51:03.134Z,15.15
2023-04-17T15:53:30.160Z,16.63
2023-04-17T15:55:57.118Z,15.23
2023-04-17T15:58:24.090Z,16.60
2023-04-17T16:00:51.173Z,16.58
2023-04-17T16:03:19.321Z,14.60
2023-04-17T16:05:46.342Z,18.77
2023-04-17T16:08:13.346Z,12.15
2023-04-17T16:10:40.529Z,13.93
2023-04-17T16:13:09.587Z,15.15
2023-04-17T16:15:36.647Z,13.65
2023-04-17T16:18:05.574Z,13.23
2023-04-17T16:20:32.604Z,15.60
2023-04-17T16:22:59.625Z,15.27
2023-04-17T16:25:26.814Z,14.60
2023-04-17T16:27:55.357Z,14.30
2023-04-17T16:30:22.443Z,16.67
2023-04-17T16:32:50.300Z,14.43
2023-04-17T16:35:17.412Z,14.10
2023-04-17T16:37:44.389Z,16.80
2023-04-17T16:40:12.216Z,12.50
2023-04-17T16:42:39.467Z,15.82
2023-04-17T16:45:07.707Z,15.68
2023-04-17T16:47:34.840Z,14.98
2023-04-17T16:50:01.927Z,13.73
2023-04-17T16:52:28.910Z,15.00
2023-04-17T16:54:56.000Z,13.23
2023-04-17T16:57:22.957Z,16.02
2023-04-17T16:59:49.929Z,14.82
2023-04-17T17:02:16.893Z,15.40
2023-04-17T17:04:45.461Z,12.15
2023-04-17T17:07:13.109Z,15.55
2023-04-17T17:09:40.610Z,12.90
2023-04-17T17:12:07.873Z,12.07
2023-04-17T17:14:34.964Z,14.35
2023-04-17T17:17:02.321Z,12.40
2023-04-17T17:19:29.782Z,14.13
2023-04-17T17:21:56.984Z,17.67
2023-04-17T17:24:25.454Z,12.43
2023-04-17T17:26:52.727Z,23.05
2023-04-17T17:29:19.800Z,12.77
2023-04-17T17:31:47.029Z,15.18
2023-04-17T17:34:26.286Z,16.20
2023-04-17T17:36:54.703Z,18.25
2023-04-17T17:39:22.299Z,23.25
2023-04-17T17:41:49.852Z,16.98
2023-04-17T17:44:16.923Z,16.63
2023-04-17T17:46:44.007Z,13.98
2023-04-17T17:49:11.069Z,10.48
2023-04-17T17:51:38.045Z,11.80
2023-04-17T17:54:05.028Z,12.90
2023-04-17T17:56:32.026Z,12.65
2023-04-17T17:58:59.144Z,12.70
2023-04-17T18:01:26.492Z,13.32
2023-04-17T18:03:59.785Z,12.05
2023-04-17T18:06:28.014Z,11.55
2023-04-17T18:08:54.994Z,12.75
2023-04-17T18:11:22.970Z,12.02
2023-04-17T18:13:49.968Z,12.93
2023-04-17T18:16:17.210Z,14.65
2023-04-17T18:18:44.194Z,10.10
2023-04-17T18:21:13.141Z,15.48
2023-04-17T18:23:40.836Z,14.23
2023-04-17T18:26:07.835Z,13.77
2023-04-17T18:28:35.425Z,13.60
2023-04-17T18:31:03.558Z,18.63
2023-04-17T18:33:30.922Z,12.95
2023-04-17T18:35:58.190Z,18.52
2023-04-17T18:38:26.736Z,13.93
2023-04-17T18:40:55.672Z,17.67
2023-04-17T18:43:22.865Z,17.63
2023-04-17T18:45:49.899Z,18.05
2023-04-17T18:48:17.240Z,16.40
2023-04-17T18:50:44.300Z,14.15
2023-04-17T18:53:11.323Z,18.48
2023-04-17T18:55:38.875Z,17.70
2023-04-17T18:58:07.753Z,15.15
2023-04-17T19:00:37.708Z,18.55
2023-04-17T19:03:05.113Z,19.25
2023-04-17T19:05:32.043Z,14.05
2023-04-17T19:07:59.557Z,14.73
2023-04-17T19:10:27.773Z,19.55
2023-04-17T19:12:54.754Z,17.88
2023-04-17T19:15:22.047Z,15.20
2023-04-17T19:17:49.017Z,21.02
2023-04-17T19:20:16.774Z,16.35
2023-04-17T19:22:43.819Z,17.23
2023-04-17T19:25:11.352Z,14.38
2023-04-17T19:27:38.379Z,15.32
2023-04-17T19:30:10.100Z,21.23
2023-04-17T19:32:38.026Z,16.60
2023-04-17T19:35:07.988Z,13.70
2023-04-17T19:37:35.154Z,18.23
2023-04-17T19:40:08.652Z,17.17
2023-04-17T19:42:41.555Z,20.20
2023-04-17T19:45:10.873Z,16.75
2023-04-17T19:47:42.320Z,17.58
2023-04-17T19:50:10.192Z,16.00
2023-04-17T19:52:39.444Z,23.48
2023-04-17T19:55:09.884Z,20.05
2023-04-17T19:57:36.981Z,14.88
2023-04-17T20:00:06.110Z,20.25
2023-04-17T20:02:40.513Z,18.33
2023-04-17T20:05:08.379Z,20.48
2023-04-17T20:07:35.799Z,18.83
2023-04-17T20:10:04.204Z,17.73
2023-04-17T20:12:33.035Z,19.05
2023-04-17T20:15:00.161Z,17.73
2023-04-17T20:17:27.698Z,20.33
2023-04-17T20:19:55.020Z,24.10
2023-04-17T20:22:21.959Z,21.40
2023-04-17T20:24:51.039Z,21.05
2023-04-17T20:27:20.616Z,23.50
2023-04-17T20:29:47.935Z,18.75
2023-04-17T20:32:16.278Z,18.95
2023-04-17T20:34:43.185Z,18.33
2023-04-17T20:37:10.336Z,19.02
2023-04-17T20:39:37.280Z,21.48
2023-04-17T20:42:04.230Z,19.88
2023-04-17T20:44:36.007Z,19.52
2023-04-17T20:47:03.832Z,19.40
2023-04-17T20:49:33.350Z,20.35
2023-04-17T20:52:02.194Z,19.40
2023-04-17T20:54:29.692Z,17.60
2023-04-17T20:56:57.397Z,24.63
2023-04-17T20:59:24.481Z,18.58
2023-04-17T21:01:52.812Z,21.75
2023-04-17T21:04:20.135Z,21.02
2023-04-17T21:06:47.084Z,19.38
2023-04-17T21:09:16.453Z,21.48
2023-04-17T21:11:43.606Z,18.92
2023-04-17T21:14:14.406Z,22.98
2023-04-17T21:16:44.430Z,20.08
2023-04-17T21:19:15.135Z,26.00
2023-04-17T21:21:44.888Z,24.80
2023-04-17T21:24:12.318Z,20.17
2023-04-17T21:26:39.784Z,19.17
2023-04-17T21:29:10.713Z,21.55
2023-04-17T21:31:39.138Z,21.38
2023-04-17T21:34:06.721Z,22.02
2023-04-17T21:36:33.914Z,17.55
2023-04-17T21:39:01.105Z,24.25
2023-04-17T21:41:28.075Z,22.00
2023-04-17T21:43:55.075Z,23.80
2023-04-17T21:46:22.342Z,20.00
2023-04-17T21:48:49.511Z,20.45
2023-04-17T21:51:17.970Z,24.05
2023-04-17T21:53:44.995Z,17.77
2023-04-17T21:56:12.705Z,25.30
2023-04-17T21:58:39.733Z,25.70
2023-04-17T22:01:06.887Z,23.00
2023-04-17T22:03:33.895Z,21.00
2023-04-17T22:06:00.957Z,23.13
2023-04-17T22:08:27.872Z,22.60
2023-04-17T22:10:54.855Z,22.90
2023-04-17T22:13:22.454Z,20.30
2023-04-17T22:15:51.591Z,23.33
2023-04-17T22:18:18.629Z,24.33
2023-04-17T22:20:46.357Z,23.20
2023-04-17T22:23:16.592Z,21.80
2023-04-17T22:25:44.831Z,26.30
2023-04-17T22:28:11.842Z,24.42
2023-04-17T22:30:38.897Z,22.45
2023-04-17T22:33:06.101Z,22.30
2023-04-17T22:35:33.250Z,20.98
2023-04-17T22:38:00.235Z,27.58
2023-04-17T22:40:27.632Z,26.17
2023-04-17T22:42:54.749Z,24.92
2023-04-17T22:45:24.634Z,24.73
2023-04-17T22:47:53.581Z,26.40
2023-04-17T22:50:22.064Z,19.85
2023-04-17T22:52:51.639Z,26.60
2023-04-17T22:55:19.841Z,25.65
2023-04-17T22:57:46.757Z,26.63
2023-04-17T23:00:14.338Z,25.42
2023-04-17T23:02:41.916Z,22.65
2023-04-17T23:05:09.277Z,24.88
2023-04-17T23:07:36.213Z,23.63
2023-04-17T23:10:03.208Z,22.90
2023-04-17T23:12:34.866Z,31.35
2023-04-17T23:15:02.046Z,23.70
2023-04-17T23:17:29.982Z,24.98
2023-04-17T23:19:57.045Z,26.85
2023-04-17T23:22:24.190Z,24.23
2023-04-17T23:24:52.646Z,22.48
2023-04-17T23:27:20.229Z,24.92
2023-04-17T23:29:47.191Z,27.42
2023-04-17T23:32:15.219Z,24.02
2023-04-17T23:34:42.703Z,30.13
2023-04-17T23:37:10.148Z,27.73
2023-04-17T23:39:37.100Z,24.88
2023-04-17T23:42:07.351Z,25.25
2023-04-17T23:44:34.759Z,23.23
2023-04-17T23:47:03.357Z,25.15
2023-04-17T23:49:30.407Z,23.95
2023-04-17T23:51:57.390Z,26.45
2023-04-17T23:54:24.414Z,23.27
2023-04-17T23:56:52.434Z,23.85
2023-04-17T23:59:20.986Z,23.25
